createdAt,value
2019-03-13T00:00:08.277Z,91.10
2019-03-13T00:05:13.227Z,90.90
2019-03-13T00:10:18.231Z,90.80
2019-03-13T00:15:23.066Z,90.50
2019-03-13T00:20:27.972Z,90.50
2019-03-13T00:25:32.822Z,90.30
2019-03-13T00:30:37.727Z,90.30
2019-03-13T00:35:42.658Z,90.10
2019-03-13T00:40:47.507Z,90.10
2019-03-13T00:45:52.350Z,89.30
2019-03-13T00:50:57.827Z,89.30
2019-03-13T00:56:02.629Z,89.30
2019-03-13T01:01:11.808Z,89.00
2019-03-13T01:06:21.241Z,88.70
2019-03-13T01:11:27.445Z,88.30
2019-03-13T01:16:32.411Z,88.90
2019-03-13T01:21:37.341Z,88.00
2019-03-13T01:26:42.187Z,87.30
2019-03-13T01:31:48.594Z,87.00
2019-03-13T01:36:53.417Z,87.00
2019-03-13T01:41:58.266Z,86.50
2019-03-13T01:47:03.115Z,87.40
2019-03-13T01:52:07.940Z,86.60
2019-03-13T01:57:14.113Z,86.20
2019-03-13T02:02:18.950Z,86.40
2019-03-13T02:07:24.883Z,86.80
2019-03-13T02:12:31.192Z,86.50
2019-03-13T02:17:36.893Z,86.10
2019-03-13T02:22:42.006Z,85.50
2019-03-13T02:27:48.772Z,85.60
2019-03-13T02:32:54.303Z,85.40
2019-03-13T02:37:59.534Z,85.40
2019-03-13T02:43:04.757Z,85.40
2019-03-13T02:48:10.097Z,84.80
2019-03-13T02:53:16.248Z,85.20
2019-03-13T02:58:22.192Z,85.10
2019-03-13T03:03:29.668Z,85.40
2019-03-13T03:08:34.598Z,85.10
2019-03-13T03:13:39.431Z,84.60
2019-03-13T03:18:44.421Z,84.00
2019-03-13T03:23:49.386Z,84.20
2019-03-13T03:28:54.084Z,84.00
2019-03-13T03:34:01.936Z,83.80
2019-03-13T03:39:07.044Z,83.50
2019-03-13T03:44:11.878Z,83.10
2019-03-13T03:49:16.713Z,83.10
2019-03-13T03:54:21.561Z,83.10
2019-03-13T03:59:26.388Z,82.80
2019-03-13T04:04:31.227Z,82.10
2019-03-13T04:09:36.066Z,82.20
2019-03-13T04:14:40.817Z,82.40
2019-03-13T04:19:45.593Z,81.90
2019-03-13T04:24:50.520Z,81.40
2019-03-13T04:29:55.283Z,81.20
2019-03-13T04:35:00.033Z,81.30
2019-03-13T04:40:07.061Z,81.70
2019-03-13T04:45:12.353Z,81.40
2019-03-13T04:50:17.392Z,81.50
2019-03-13T04:55:22.232Z,81.50
2019-03-13T05:00:27.056Z,81.90
2019-03-13T05:05:45.290Z,81.50
2019-03-13T05:10:51.403Z,81.90
2019-03-13T05:15:56.241Z,81.80
2019-03-13T05:21:01.497Z,81.70
2019-03-13T05:26:06.424Z,81.80
2019-03-13T05:31:11.268Z,82.10
2019-03-13T05:36:17.005Z,81.80
2019-03-13T05:41:22.437Z,82.00
2019-03-13T05:46:27.315Z,82.00
2019-03-13T05:51:32.137Z,81.20
2019-03-13T05:56:36.978Z,80.60
2019-03-13T06:01:41.814Z,80.20
2019-03-13T06:06:46.638Z,79.30
2019-03-13T06:11:51.464Z,78.90
2019-03-13T06:16:56.317Z,77.70
2019-03-13T06:22:01.350Z,78.20
2019-03-13T06:27:06.734Z,77.50
2019-03-13T06:32:11.556Z,77.60
2019-03-13T06:37:16.321Z,77.80
2019-03-13T06:42:21.166Z,78.20
2019-03-13T06:47:26.013Z,78.10
2019-03-13T06:52:31.805Z,78.60
2019-03-13T06:57:37.319Z,79.10
2019-03-13T07:02:46.538Z,79.90
2019-03-13T07:07:52.934Z,81.90
2019-03-13T07:13:11.348Z,85.10
2019-03-13T07:18:26.968Z,87.60
2019-03-13T07:23:43.692Z,90.60
2019-03-13T07:28:52.492Z,91.90
2019-03-13T07:33:58.371Z,93.60
2019-03-13T07:39:07.786Z,94.40
2019-03-13T07:44:32.409Z,95.20
2019-03-13T07:49:54.924Z,96.10
2019-03-13T07:55:10.267Z,96.80
2019-03-13T08:00:16.734Z,97.40
2019-03-13T08:05:32.345Z,97.90
2019-03-13T08:10:50.805Z,98.20
2019-03-13T08:15:59.844Z,98.30
2019-03-13T08:21:21.107Z,98.20
2019-03-13T08:26:33.300Z,98.40
2019-03-13T08:31:48.711Z,98.20
2019-03-13T08:37:11.544Z,98.30
2019-03-13T08:42:18.016Z,98.70
2019-03-13T08:47:27.165Z,99.00
2019-03-13T08:52:33.655Z,99.30
2019-03-13T08:57:42.882Z,99.50
2019-03-13T09:03:01.294Z,99.20
2019-03-13T09:08:07.775Z,99.30
2019-03-13T09:13:14.251Z,99.40
2019-03-13T09:18:20.657Z,99.40
2019-03-13T09:23:43.468Z,99.50
2019-03-13T09:29:01.748Z,99.40
2019-03-13T09:34:17.258Z,99.30
2019-03-13T09:39:26.231Z,99.30
2019-03-13T09:44:32.938Z,98.80
2019-03-13T09:49:55.270Z,98.50
2019-03-13T09:55:10.512Z,98.10
2019-03-13T10:00:32.870Z,97.70
2019-03-13T10:05:55.375Z,97.60
2019-03-13T10:11:04.623Z,97.10
2019-03-13T10:16:23.162Z,96.10
2019-03-13T10:21:29.632Z,96.00
2019-03-13T10:26:41.974Z,95.70
2019-03-13T10:32:04.596Z,95.10
2019-03-13T10:37:16.941Z,94.30
2019-03-13T10:42:23.427Z,94.90
2019-03-13T10:47:29.907Z,95.00
2019-03-13T10:52:36.379Z,94.90
2019-03-13T10:57:48.547Z,95.90
2019-03-13T11:03:13.137Z,94.40
2019-03-13T11:08:22.412Z,92.10
2019-03-13T11:13:28.889Z,90.20
2019-03-13T11:18:38.145Z,87.30
2019-03-13T11:23:44.609Z,86.30
2019-03-13T11:29:05.885Z,83.40
2019-03-13T11:34:12.356Z,79.30
2019-03-13T11:39:18.838Z,71.70
2019-03-13T11:44:28.031Z,69.70
2019-03-13T11:49:34.516Z,67.50
2019-03-13T11:54:49.727Z,68.00
2019-03-13T11:59:56.195Z,68.60
2019-03-13T12:05:02.687Z,70.20
2019-03-13T12:10:25.433Z,71.20
2019-03-13T12:15:31.884Z,70.10
2019-03-13T12:20:41.238Z,69.00
2019-03-13T12:25:47.812Z,67.60
2019-03-13T12:31:09.322Z,66.80
2019-03-13T12:36:32.050Z,66.60
2019-03-13T12:41:38.584Z,66.00
2019-03-13T12:46:54.085Z,66.00
2019-03-13T12:52:09.577Z,65.30
2019-03-13T12:57:30.908Z,63.80
2019-03-13T13:02:46.388Z,65.00
2019-03-13T13:07:55.897Z,65.60
2019-03-13T13:13:08.746Z,64.00
2019-03-13T13:18:31.452Z,63.40
2019-03-13T13:23:36.285Z,66.50
2019-03-13T13:28:41.150Z,64.80
2019-03-13T13:33:46.246Z,64.90
2019-03-13T13:38:51.084Z,65.10
2019-03-13T13:43:55.933Z,64.30
2019-03-13T13:49:00.768Z,64.00
2019-03-13T13:54:05.692Z,65.30
2019-03-13T13:59:10.527Z,63.40
2019-03-13T14:04:15.467Z,62.30
2019-03-13T14:09:21.314Z,62.00
2019-03-13T14:14:27.864Z,60.60
2019-03-13T14:19:32.891Z,60.70
2019-03-13T14:24:37.792Z,57.90
2019-03-13T14:29:42.594Z,61.60
2019-03-13T14:34:47.713Z,60.80
2019-03-13T14:39:52.536Z,60.20
2019-03-13T14:44:57.379Z,61.30
2019-03-13T14:50:02.303Z,62.30
2019-03-13T14:55:10.019Z,61.00
2019-03-13T15:00:25.419Z,62.50
2019-03-13T15:05:31.743Z,62.50
2019-03-13T15:10:36.573Z,61.00
2019-03-13T15:15:41.393Z,61.30
2019-03-13T15:20:46.222Z,63.20
2019-03-13T15:25:51.055Z,61.50
2019-03-13T15:30:55.988Z,62.00
2019-03-13T15:36:00.946Z,63.10
2019-03-13T15:41:06.052Z,62.30
2019-03-13T15:46:10.872Z,63.60
2019-03-13T15:51:15.711Z,64.20
2019-03-13T15:56:20.542Z,64.80
2019-03-13T16:01:25.374Z,64.20
2019-03-13T16:06:30.208Z,65.20
2019-03-13T16:11:35.078Z,65.90
2019-03-13T16:16:39.983Z,65.90
2019-03-13T16:21:45.425Z,65.50
2019-03-13T16:26:50.261Z,66.60
2019-03-13T16:31:55.199Z,67.00
2019-03-13T16:37:00.226Z,67.40
2019-03-13T16:42:05.068Z,68.60
2019-03-13T16:47:09.925Z,68.90
2019-03-13T16:52:14.848Z,69.20
2019-03-13T16:57:19.709Z,68.70
2019-03-13T17:02:24.584Z,68.60
2019-03-13T17:07:29.417Z,68.80
2019-03-13T17:12:34.500Z,68.10
2019-03-13T17:17:39.404Z,67.60
2019-03-13T17:22:45.207Z,67.30
2019-03-13T17:27:50.383Z,67.30
2019-03-13T17:32:55.275Z,67.30
2019-03-13T17:38:00.187Z,68.00
2019-03-13T17:43:05.033Z,68.50
2019-03-13T17:48:09.891Z,69.10
2019-03-13T17:53:14.827Z,68.80
2019-03-13T17:58:22.520Z,69.00
2019-03-13T18:03:26.417Z,69.20
2019-03-13T18:08:34.205Z,70.30
2019-03-13T18:13:39.701Z,70.00
2019-03-13T18:18:44.743Z,70.60
2019-03-13T18:23:49.745Z,70.70
2019-03-13T18:28:54.798Z,71.50
2019-03-13T18:33:59.706Z,70.80
2019-03-13T18:39:05.484Z,70.80
2019-03-13T18:44:10.334Z,70.50
2019-03-13T18:49:15.174Z,70.10
2019-03-13T18:54:20.021Z,69.30
2019-03-13T18:59:24.857Z,68.70
2019-03-13T19:04:29.711Z,67.90
2019-03-13T19:09:40.583Z,68.50
2019-03-13T19:14:47.219Z,69.00
2019-03-13T19:19:54.159Z,68.70
2019-03-13T19:24:58.991Z,69.30
2019-03-13T19:30:05.907Z,70.00
2019-03-13T19:35:10.750Z,69.60
2019-03-13T19:40:18.367Z,69.80
2019-03-13T19:45:26.192Z,70.20
2019-03-13T19:50:31.292Z,70.30
2019-03-13T19:55:36.498Z,70.40
2019-03-13T20:00:41.347Z,70.70
2019-03-13T20:05:46.759Z,70.80
2019-03-13T20:10:51.651Z,70.50
2019-03-13T20:15:56.610Z,70.70
2019-03-13T20:21:01.455Z,70.90
2019-03-13T20:26:06.572Z,71.00
2019-03-13T20:31:11.601Z,70.60
2019-03-13T20:36:16.453Z,71.10
2019-03-13T20:41:21.483Z,70.70
2019-03-13T20:46:26.333Z,70.80
2019-03-13T20:51:31.179Z,71.80
2019-03-13T20:56:36.019Z,71.30
2019-03-13T21:01:42.015Z,72.00
2019-03-13T21:06:47.014Z,72.20
2019-03-13T21:11:51.855Z,72.70
2019-03-13T21:16:56.780Z,73.50
2019-03-13T21:22:04.474Z,73.30
2019-03-13T21:27:08.358Z,73.60
2019-03-13T21:32:13.202Z,74.40
2019-03-13T21:37:18.046Z,74.40
2019-03-13T21:42:23.215Z,74.00
2019-03-13T21:47:28.158Z,73.70
2019-03-13T21:52:33.105Z,73.00
2019-03-13T21:57:37.993Z,72.80
2019-03-13T22:02:42.834Z,72.70
2019-03-13T22:07:47.771Z,72.50
2019-03-13T22:12:52.608Z,71.80
2019-03-13T22:17:57.471Z,71.60
2019-03-13T22:23:02.318Z,71.60
2019-03-13T22:28:07.178Z,71.70
2019-03-13T22:33:12.003Z,71.30
2019-03-13T22:38:16.845Z,71.90
2019-03-13T22:43:21.964Z,71.80
2019-03-13T22:48:26.859Z,71.90
2019-03-13T22:53:31.812Z,72.10
2019-03-13T22:58:36.775Z,71.90
2019-03-13T23:03:41.627Z,72.10
2019-03-13T23:08:46.487Z,72.50
2019-03-13T23:13:51.455Z,72.10
2019-03-13T23:18:56.313Z,72.30
2019-03-13T23:24:01.258Z,72.30
2019-03-13T23:29:06.110Z,73.00
2019-03-13T23:34:11.070Z,73.10
2019-03-13T23:39:16.012Z,73.50
2019-03-13T23:44:20.940Z,73.70
2019-03-13T23:49:25.781Z,73.60
2019-03-13T23:54:30.630Z,73.80
2019-03-13T23:59:35.477Z,74.10
